Time;durP1;ratioP1;P1;durP2;ratioP2;P2;SDS_P1;SDS_P2;PMS_P1;PMS_P2;Temp;Humidity;BMP_temperature;BMP_pressure;BME280_temperature;BME280_humidity;BME280_pressure;Samples;Min_cycle;Max_cycle;Signal;HPM_P1;HPM_P2
2023/09/03 00:01:01;;;;;;;25.77;18.50;;;;;;;14.86;100.00;102329.94;4790924;30;20043;-88
2023/09/03 00:03:29;;;;;;;22.37;17.57;;;;;;;14.86;100.00;102329.94;4804786;29;20076;-88
2023/09/03 00:05:57;;;;;;;25.63;18.30;;;;;;;14.80;100.00;102330.75;4789233;29;20070;-88
2023/09/03 00:08:23;;;;;;;28.65;18.80;;;;;;;14.81;100.00;102329.72;4804740;29;20105;-88
2023/09/03 00:10:50;;;;;;;24.35;18.13;;;;;;;14.74;100.00;102334.34;4790913;29;20039;-88
2023/09/03 00:13:16;;;;;;;27.23;18.33;;;;;;;14.74;100.00;102329.69;4789722;30;20126;-88
2023/09/03 00:15:41;;;;;;;24.27;18.42;;;;;;;14.71;100.00;102327.38;4789238;29;20130;-88
2023/09/03 00:18:08;;;;;;;26.00;18.70;;;;;;;14.68;100.00;102327.81;4789595;29;20054;-88
2023/09/03 00:20:33;;;;;;;27.10;18.33;;;;;;;14.70;100.00;102330.31;4790710;29;20476;-88
2023/09/03 00:23:01;;;;;;;23.00;17.27;;;;;;;14.67;100.00;102320.66;4789021;30;20056;-89
2023/09/03 00:25:27;;;;;;;26.38;17.50;;;;;;;14.64;100.00;102322.97;4789479;30;20465;-88
2023/09/03 00:27:55;;;;;;;25.00;17.20;;;;;;;14.60;100.00;102319.78;4774762;30;20053;-88
2023/09/03 00:30:20;;;;;;;25.63;17.83;;;;;;;14.58;100.00;102332.78;4804251;29;20040;-88
2023/09/03 00:32:48;;;;;;;25.77;16.93;;;;;;;14.53;100.00;102333.41;4789431;30;20467;-88
2023/09/03 00:35:14;;;;;;;25.02;17.63;;;;;;;14.53;100.00;102329.84;4774266;30;20045;-88
2023/09/03 00:37:39;;;;;;;23.77;18.57;;;;;;;14.53;100.00;102343.50;4790486;29;20118;-88
2023/09/03 00:40:05;;;;;;;23.47;17.17;;;;;;;14.51;100.00;102348.31;4789015;29;20076;-88
2023/09/03 00:42:33;;;;;;;24.70;18.00;;;;;;;14.46;100.00;102350.81;4804057;29;20038;-88
2023/09/03 00:45:01;;;;;;;24.45;15.88;;;;;;;14.43;100.00;102357.53;4790457;30;20071;-88
2023/09/03 00:47:36;;;;;;;22.92;17.23;;;;;;;14.44;100.00;102361.09;4788931;30;20077;-88
2023/09/03 00:50:03;;;;;;;21.15;16.77;;;;;;;14.42;100.00;102358.56;4790351;29;20039;-88
2023/09/03 00:52:31;;;;;;;22.80;17.10;;;;;;;14.41;100.00;102356.91;4788920;29;20120;-89
2023/09/03 00:54:57;;;;;;;24.17;17.20;;;;;;;14.38;100.00;102351.84;4788721;30;20127;-88
2023/09/03 00:57:23;;;;;;;24.63;16.65;;;;;;;14.33;100.00;102354.34;4788904;30;20428;-88
2023/09/03 00:59:51;;;;;;;23.65;16.15;;;;;;;14.34;100.00;102356.88;4789245;29;20036;-88
2023/09/03 01:02:19;;;;;;;22.08;16.83;;;;;;;14.30;100.00;102354.75;4773426;30;20400;-89
2023/09/03 01:04:51;;;;;;;23.13;16.00;;;;;;;14.27;100.00;102349.69;4803858;29;20042;-88
2023/09/03 01:07:17;;;;;;;23.23;17.98;;;;;;;14.27;100.00;102358.72;4788740;30;20039;-88
2023/09/03 01:09:42;;;;;;;21.55;16.23;;;;;;;14.24;100.00;102372.78;4774043;30;20035;-89
2023/09/03 01:12:37;;;;;;;21.33;16.30;;;;;;;14.20;100.00;102374.22;4759097;30;20046;-88
2023/09/03 01:15:32;;;;;;;24.48;15.98;;;;;;;14.17;100.00;102369.16;4784881;30;20039;-88
2023/09/03 01:18:11;;;;;;;21.63;16.00;;;;;;;14.17;100.00;102364.56;4787637;30;20082;-88
2023/09/03 01:20:42;;;;;;;21.98;16.20;;;;;;;14.14;100.00;102359.53;4773784;30;20404;-88
2023/09/03 01:23:19;;;;;;;19.50;15.65;;;;;;;14.13;100.00;102360.56;4803364;29;20480;-88
2023/09/03 01:26:08;;;;;;;22.27;16.17;;;;;;;14.12;100.00;102369.78;4788468;29;20035;-88
2023/09/03 01:28:39;;;;;;;21.77;15.38;;;;;;;14.10;100.00;102362.84;4803442;29;20031;-88
2023/09/03 01:31:08;;;;;;;21.80;15.77;;;;;;;14.05;100.00;102355.25;4803219;29;20117;-88
2023/09/03 01:33:36;;;;;;;22.48;15.75;;;;;;;14.04;100.00;102365.34;4803110;29;20502;-88
2023/09/03 01:36:06;;;;;;;22.55;16.08;;;;;;;14.06;100.00;102361.56;4789544;30;20042;-89
2023/09/03 01:38:34;;;;;;;22.63;16.30;;;;;;;14.06;100.00;102361.56;4759111;30;20369;-88
2023/09/03 01:41:01;;;;;;;20.88;16.65;;;;;;;14.00;100.00;102355.88;4789301;29;20043;-88
2023/09/03 01:43:27;;;;;;;18.67;15.43;;;;;;;14.03;100.00;102366.38;4788217;30;20122;-88
2023/09/03 01:45:55;;;;;;;22.00;16.00;;;;;;;13.99;100.00;102358.78;4773230;30;20134;-88
2023/09/03 01:48:34;;;;;;;22.02;15.60;;;;;;;13.97;100.00;102361.72;4788043;29;20027;-89
2023/09/03 01:51:28;;;;;;;22.48;16.20;;;;;;;13.95;100.00;102361.09;4788442;30;20058;-87
2023/09/03 01:54:26;;;;;;;22.08;15.30;;;;;;;13.94;100.00;102362.13;4787517;29;20055;-88
2023/09/03 01:57:16;;;;;;;25.20;16.07;;;;;;;13.88;100.00;102362.06;4767699;30;20043;-90
2023/09/03 02:00:16;;;;;;;18.60;14.98;;;;;;;13.83;100.00;102359.94;4802918;29;20429;-88
2023/09/03 02:02:50;;;;;;;20.98;15.20;;;;;;;13.82;100.00;102367.31;4783266;29;20039;-88
2023/09/03 02:05:19;;;;;;;21.88;16.50;;;;;;;13.79;100.00;102364.13;4789206;29;20581;-89
2023/09/03 02:07:47;;;;;;;24.42;15.90;;;;;;;13.74;100.00;102367.44;4788806;29;20100;-88
2023/09/03 02:10:12;;;;;;;21.77;15.50;;;;;;;13.73;100.00;102371.25;4787947;29;20039;-88
2023/09/03 02:12:38;;;;;;;20.90;15.25;;;;;;;13.68;100.00;102374.56;4787122;29;20039;-88
2023/09/03 02:15:03;;;;;;;21.60;15.57;;;;;;;13.68;100.00;102376.44;4788732;30;20039;-88
2023/09/03 02:17:32;;;;;;;19.33;15.27;;;;;;;13.67;100.00;102388.38;4788664;30;20043;-88
2023/09/03 02:20:00;;;;;;;20.73;15.70;;;;;;;13.66;100.00;102390.28;4788660;30;20338;-88
2023/09/03 02:22:27;;;;;;;19.42;15.93;;;;;;;13.66;100.00;102393.00;4802224;29;20495;-88
2023/09/03 02:24:53;;;;;;;20.67;16.38;;;;;;;13.64;100.00;102395.09;4787420;29;20472;-89
2023/09/03 02:27:19;;;;;;;20.60;15.88;;;;;;;13.64;100.00;102399.69;4757736;30;20031;-89
2023/09/03 02:29:47;;;;;;;20.37;15.50;;;;;;;13.63;100.00;102408.94;4786967;30;20043;-88
2023/09/03 02:32:12;;;;;;;20.90;15.27;;;;;;;13.64;100.00;102408.72;4772269;30;20412;-88
2023/09/03 02:34:40;;;;;;;24.63;16.20;;;;;;;13.59;100.00;102405.75;4787242;29;20041;-88
2023/09/03 02:37:06;;;;;;;22.10;16.00;;;;;;;13.59;100.00;102405.75;4788921;29;20027;-88
2023/09/03 02:39:31;;;;;;;22.57;15.53;;;;;;;13.61;100.00;102411.00;4802288;29;20195;-89
2023/09/03 02:41:57;;;;;;;23.87;16.03;;;;;;;13.58;100.00;102412.25;4772013;30;20043;-88
2023/09/03 02:44:23;;;;;;;20.88;16.33;;;;;;;13.61;100.00;102411.84;4787206;29;20035;-89
2023/09/03 02:46:52;;;;;;;21.60;16.53;;;;;;;13.58;100.00;102404.06;4786999;29;20542;-88
2023/09/03 02:49:17;;;;;;;23.40;16.23;;;;;;;13.56;100.00;102388.94;4771799;30;20303;-89
2023/09/03 02:51:42;;;;;;;24.10;16.70;;;;;;;13.54;100.00;102386.41;4787150;29;20122;-88
2023/09/03 02:54:08;;;;;;;23.40;16.80;;;;;;;13.48;100.00;102379.03;4771710;30;20063;-88
2023/09/03 02:56:34;;;;;;;22.93;16.70;;;;;;;13.46;100.00;102392.00;4788808;29;20043;-88
2023/09/03 02:59:02;;;;;;;22.55;17.02;;;;;;;13.43;100.00;102390.50;4801868;29;20039;-88
2023/09/03 03:01:30;;;;;;;22.40;16.90;;;;;;;13.42;100.00;102385.25;4787174;30;20039;-88
2023/09/03 03:03:56;;;;;;;22.83;16.63;;;;;;;13.38;100.00;102389.44;4788161;29;20067;-88
2023/09/03 03:06:22;;;;;;;23.83;17.33;;;;;;;13.40;100.00;102392.78;4787204;30;20077;-88
2023/09/03 03:08:47;;;;;;;23.40;16.65;;;;;;;13.39;100.00;102400.13;4802033;29;20122;-88
2023/09/03 03:11:18;;;;;;;25.13;16.13;;;;;;;13.41;100.00;102392.59;4786731;29;20047;-87
2023/09/03 03:13:45;;;;;;;20.55;16.08;;;;;;;13.42;100.00;102404.31;4787222;29;20396;-88
2023/09/03 03:16:13;;;;;;;23.23;16.17;;;;;;;13.44;100.00;102410.44;4788009;30;20078;-90
2023/09/03 03:18:46;;;;;;;22.10;16.60;;;;;;;13.43;100.00;102406.84;4787960;29;20455;-88
2023/09/03 03:21:18;;;;;;;26.67;16.60;;;;;;;13.42;100.00;102407.91;4757606;30;20054;-88
2023/09/03 03:23:51;;;;;;;22.00;16.37;;;;;;;13.41;100.00;102389.88;4789515;29;20400;-88
2023/09/03 03:26:18;;;;;;;22.05;17.08;;;;;;;13.42;100.00;102386.09;4791709;29;20118;-88
2023/09/03 03:28:44;;;;;;;24.48;16.98;;;;;;;13.39;100.00;102369.28;4760606;30;20047;-88
2023/09/03 03:31:10;;;;;;;23.48;17.40;;;;;;;13.38;100.00;102368.44;4791582;29;20043;-88
2023/09/03 03:33:40;;;;;;;22.92;16.85;;;;;;;13.33;100.00;102359.97;4790149;29;20157;-89
2023/09/03 03:36:10;;;;;;;21.30;15.93;;;;;;;13.32;100.00;102359.13;4790351;30;20126;-88
2023/09/03 03:38:36;;;;;;;24.77;16.77;;;;;;;13.31;100.00;102362.91;4791400;30;20096;-88
2023/09/03 03:41:11;;;;;;;27.50;17.27;;;;;;;13.30;100.00;102376.72;4789871;29;20494;-88
2023/09/03 03:43:38;;;;;;;26.90;17.17;;;;;;;13.27;100.00;102380.72;4789948;29;20040;-88
2023/09/03 03:46:08;;;;;;;22.40;16.65;;;;;;;13.29;100.00;102399.59;4775240;30;20039;-88
2023/09/03 03:48:34;;;;;;;22.20;15.98;;;;;;;13.32;100.00;102404.66;4789927;29;20377;-87
2023/09/03 03:51:00;;;;;;;23.40;15.83;;;;;;;13.33;100.00;102411.75;4789910;30;20061;-87
2023/09/03 03:53:28;;;;;;;22.13;16.63;;;;;;;13.31;100.00;102411.97;4774706;30;20409;-88
2023/09/03 03:56:01;;;;;;;24.38;17.05;;;;;;;13.32;100.00;102410.09;4791651;30;20070;-88
2023/09/03 03:58:32;;;;;;;20.52;15.85;;;;;;;13.35;100.00;102415.19;4790987;30;20046;-88
2023/09/03 04:00:58;;;;;;;21.53;15.30;;;;;;;13.32;100.00;102402.75;4775783;30;20031;-88
2023/09/03 04:03:27;;;;;;;21.67;16.20;;;;;;;13.32;100.00;102396.47;4804827;29;20032;-88
2023/09/03 04:06:00;;;;;;;21.40;16.08;;;;;;;13.36;100.00;102402.38;4790994;29;20058;-88
2023/09/03 04:08:27;;;;;;;21.58;16.40;;;;;;;13.33;100.00;102411.75;4791171;30;20120;-88
2023/09/03 04:11:03;;;;;;;22.00;15.73;;;;;;;13.32;100.00;102413.66;4804715;29;20035;-88
2023/09/03 04:13:31;;;;;;;22.90;15.03;;;;;;;13.32;100.00;102416.38;4789938;29;20122;-88
2023/09/03 04:15:58;;;;;;;23.60;16.67;;;;;;;13.28;100.00;102419.69;4774764;30;20039;-89
2023/09/03 04:18:25;;;;;;;21.27;15.68;;;;;;;13.30;100.00;102420.34;4804708;29;20092;-88
2023/09/03 04:20:57;;;;;;;21.58;16.35;;;;;;;13.28;100.00;102422.44;4804363;29;20046;-89
2023/09/03 04:23:24;;;;;;;18.83;15.98;;;;;;;13.24;100.00;102424.72;4774514;30;20050;-88
2023/09/03 04:25:51;;;;;;;19.87;15.60;;;;;;;13.27;100.00;102423.47;4789349;29;20458;-89
2023/09/03 04:28:18;;;;;;;19.80;15.05;;;;;;;13.29;100.00;102424.13;4790730;29;20042;-88
2023/09/03 04:30:43;;;;;;;18.45;14.02;;;;;;;13.30;100.00;102428.50;4789394;30;20073;-88
2023/09/03 04:33:09;;;;;;;25.80;15.13;;;;;;;13.30;100.00;102425.78;4804333;29;20483;-88
2023/09/03 04:35:35;;;;;;;19.45;14.27;;;;;;;13.28;100.00;102427.88;4773391;29;20121;-88
2023/09/03 04:38:02;;;;;;;19.23;14.80;;;;;;;13.31;100.00;102436.50;4789393;30;20066;-88
2023/09/03 04:40:44;;;;;;;18.48;14.27;;;;;;;13.31;100.00;102441.13;4789117;30;20059;-88
2023/09/03 04:43:10;;;;;;;18.30;14.50;;;;;;;13.30;100.00;102444.88;4789506;30;20509;-88
2023/09/03 04:45:51;;;;;;;19.45;14.52;;;;;;;13.30;100.00;102450.31;4789936;30;20043;-88
2023/09/03 04:48:17;;;;;;;20.73;14.35;;;;;;;13.27;100.00;102440.69;4804104;29;20046;-87
2023/09/03 04:50:45;;;;;;;22.70;14.37;;;;;;;13.31;100.00;102450.13;4789106;29;20035;-88
2023/09/03 04:53:14;;;;;;;21.10;15.20;;;;;;;13.33;100.00;102450.78;4773361;30;20055;-88
2023/09/03 04:55:47;;;;;;;18.42;14.52;;;;;;;13.30;100.00;102453.91;4789846;29;20193;-88
2023/09/03 04:58:15;;;;;;;17.88;14.32;;;;;;;13.32;100.00;102451.81;4789563;29;20100;-88
2023/09/03 05:00:41;;;;;;;17.77;14.52;;;;;;;13.29;100.00;102452.22;4788852;29;20088;-89
2023/09/03 05:03:11;;;;;;;22.40;15.47;;;;;;;13.30;100.00;102463.94;4788688;30;20039;-88
2023/09/03 05:05:41;;;;;;;22.35;15.18;;;;;;;13.29;100.00;102463.13;4773999;30;20035;-88
2023/09/03 05:08:09;;;;;;;18.50;15.27;;;;;;;13.32;100.00;102468.19;4773818;30;20051;-88
2023/09/03 05:10:37;;;;;;;19.40;14.73;;;;;;;13.37;100.00;102464.06;4788741;30;20050;-88
2023/09/03 05:13:06;;;;;;;22.25;14.88;;;;;;;13.36;100.00;102463.22;4788345;29;20035;-89
2023/09/03 05:15:32;;;;;;;22.13;14.85;;;;;;;13.38;100.00;102468.50;4774470;30;20039;-88
2023/09/03 05:17:58;;;;;;;20.45;14.43;;;;;;;13.39;100.00;102475.59;4774635;30;20047;-88
2023/09/03 05:20:25;;;;;;;19.27;14.33;;;;;;;13.38;100.00;102474.78;4788184;30;20507;-88
2023/09/03 05:22:51;;;;;;;21.08;13.95;;;;;;;13.36;100.00;102473.28;4773003;30;20054;-88
2023/09/03 05:25:16;;;;;;;19.03;14.47;;;;;;;13.41;100.00;102481.72;4789729;29;20392;-88
2023/09/03 05:27:42;;;;;;;19.00;14.20;;;;;;;13.44;100.00;102479.44;4773669;30;20047;-88
2023/09/03 05:30:13;;;;;;;18.50;14.43;;;;;;;13.47;100.00;102486.41;4788230;29;20039;-88
2023/09/03 05:32:40;;;;;;;18.85;14.13;;;;;;;13.51;100.00;102490.44;4788322;29;20501;-87
2023/09/03 05:35:06;;;;;;;19.77;13.90;;;;;;;13.55;100.00;102486.25;4773541;30;20036;-88
2023/09/03 05:37:34;;;;;;;18.33;14.00;;;;;;;13.62;100.00;102489.88;4788609;30;20118;-89
2023/09/03 05:39:59;;;;;;;17.57;13.70;;;;;;;13.68;100.00;102488.25;4758595;30;20130;-88
2023/09/03 05:42:25;;;;;;;17.60;13.98;;;;;;;13.74;100.00;102484.75;4787711;30;20129;-88
2023/09/03 05:44:55;;;;;;;19.70;15.40;;;;;;;13.79;100.00;102478.69;4789028;29;20039;-88
2023/09/03 05:47:20;;;;;;;21.65;15.00;;;;;;;13.84;100.00;102487.97;4787989;30;20110;-88
2023/09/03 05:49:46;;;;;;;19.60;15.07;;;;;;;13.94;100.00;102490.38;4788127;30;20374;-88
2023/09/03 05:52:11;;;;;;;17.37;14.40;;;;;;;14.02;100.00;102482.06;4787745;30;20066;-88
2023/09/03 05:54:38;;;;;;;20.27;15.27;;;;;;;14.10;100.00;102489.25;4773575;30;20044;-91
2023/09/03 05:57:04;;;;;;;20.53;15.47;;;;;;;14.16;100.00;102491.16;4789130;29;20273;-84
2023/09/03 05:59:32;;;;;;;20.17;15.30;;;;;;;14.27;100.00;102500.69;4787917;30;20045;-84
2023/09/03 06:01:57;;;;;;;19.98;15.63;;;;;;;14.34;100.00;102498.84;4788003;29;20047;-83
2023/09/03 06:04:23;;;;;;;20.27;15.13;;;;;;;14.42;100.00;102508.75;4789163;29;20469;-83
2023/09/03 06:06:48;;;;;;;21.03;15.03;;;;;;;14.47;100.00;102509.00;4772950;30;20492;-83
2023/09/03 06:09:17;;;;;;;19.83;16.47;;;;;;;14.54;100.00;102520.81;4788829;29;20046;-84
2023/09/03 06:11:44;;;;;;;19.90;16.52;;;;;;;14.64;100.00;102522.38;4773453;30;20069;-83
2023/09/03 06:14:10;;;;;;;22.60;16.45;;;;;;;14.71;100.00;102520.50;4788973;29;20047;-83
2023/09/03 06:16:35;;;;;;;24.27;17.33;;;;;;;14.71;100.00;102515.88;4787314;30;20478;-84
2023/09/03 06:19:00;;;;;;;23.93;18.30;;;;;;;14.81;100.00;102523.72;4788423;29;20035;-83
2023/09/03 06:21:26;;;;;;;23.27;17.93;;;;;;;14.87;100.00;102522.06;4802623;29;20039;-83
2023/09/03 06:23:52;;;;;;;23.45;18.38;;;;;;;14.93;100.00;102523.97;4772126;30;20503;-83
2023/09/03 06:26:17;;;;;;;27.00;19.53;;;;;;;14.99;100.00;102536.81;4772441;30;20512;-83
2023/09/03 06:28:43;;;;;;;25.63;19.80;;;;;;;15.02;100.00;102544.63;4787259;29;20358;-83
2023/09/03 06:31:08;;;;;;;23.97;20.50;;;;;;;15.06;100.00;102545.06;4771969;30;20396;-83
2023/09/03 06:33:34;;;;;;;26.10;19.83;;;;;;;15.09;100.00;102553.69;4787291;29;20505;-83
2023/09/03 06:35:59;;;;;;;24.70;20.57;;;;;;;15.13;100.00;102570.53;4772597;30;20500;-83
2023/09/03 06:38:25;;;;;;;27.40;20.00;;;;;;;15.19;100.00;102567.00;4788650;30;20071;-83
2023/09/03 06:40:50;;;;;;;24.13;19.43;;;;;;;15.24;100.00;102569.94;4788542;29;20070;-83
2023/09/03 06:43:16;;;;;;;24.23;19.47;;;;;;;15.25;100.00;102562.56;4772146;30;20054;-83
2023/09/03 06:45:41;;;;;;;24.93;19.57;;;;;;;15.23;100.00;102568.25;4772516;30;20794;-83
2023/09/03 06:48:08;;;;;;;25.00;19.17;;;;;;;15.28;100.00;102573.13;4788345;30;20047;-83
2023/09/03 06:50:34;;;;;;;24.23;18.92;;;;;;;15.30;100.00;102578.38;4772633;30;20039;-83
2023/09/03 06:52:59;;;;;;;26.33;19.20;;;;;;;15.36;100.00;102580.31;4788267;29;20035;-83
2023/09/03 06:55:25;;;;;;;25.85;18.88;;;;;;;15.35;100.00;102579.44;4771835;30;20066;-84
2023/09/03 06:57:50;;;;;;;26.47;19.40;;;;;;;15.40;100.00;102584.31;4790374;29;20039;-85
2023/09/03 07:00:16;;;;;;;24.33;18.27;;;;;;;15.40;100.00;102589.78;4793028;29;20138;-84
2023/09/03 07:02:41;;;;;;;24.73;19.33;;;;;;;15.39;100.00;102580.72;4792785;29;20054;-84
2023/09/03 07:05:07;;;;;;;21.73;17.90;;;;;;;15.44;100.00;102580.97;4794310;29;20485;-84
2023/09/03 07:07:32;;;;;;;22.60;18.57;;;;;;;15.49;100.00;102582.25;4794354;29;20070;-84
2023/09/03 07:09:58;;;;;;;23.70;19.02;;;;;;;15.50;100.00;102584.78;4793181;30;20043;-84
2023/09/03 07:12:24;;;;;;;23.83;17.83;;;;;;;15.53;100.00;102594.44;4794356;30;20046;-84
2023/09/03 07:14:50;;;;;;;24.70;18.23;;;;;;;15.51;100.00;102597.38;4793009;29;20035;-85
2023/09/03 07:17:15;;;;;;;24.85;18.63;;;;;;;15.58;100.00;102605.63;4794318;29;20105;-84
2023/09/03 07:19:43;;;;;;;23.07;18.73;;;;;;;15.59;100.00;102605.41;4794033;29;20035;-84
2023/09/03 07:22:09;;;;;;;20.92;18.17;;;;;;;15.64;100.00;102601.22;4807580;29;20039;-92
2023/09/03 07:24:34;;;;;;;27.30;18.60;;;;;;;15.71;100.00;102602.06;4807844;29;20050;-84
2023/09/03 07:27:00;;;;;;;24.17;18.38;;;;;;;15.76;100.00;102607.75;4792821;29;20047;-84
2023/09/03 07:29:25;;;;;;;28.57;19.27;;;;;;;15.79;100.00;102602.72;4793990;30;20460;-84
2023/09/03 07:31:51;;;;;;;25.13;18.93;;;;;;;15.86;100.00;102605.50;4794028;29;20035;-84
2023/09/03 07:34:16;;;;;;;25.40;20.20;;;;;;;15.89;100.00;102607.81;4792500;30;20047;-84
2023/09/03 07:36:42;;;;;;;24.92;20.08;;;;;;;15.95;100.00;102609.72;4777422;30;20078;-84
2023/09/03 07:39:09;;;;;;;27.30;21.02;;;;;;;16.00;100.00;102614.56;4793660;29;20538;-84
2023/09/03 07:41:35;;;;;;;26.93;20.40;;;;;;;16.04;100.00;102612.25;4794022;29;20039;-84
2023/09/03 07:44:00;;;;;;;27.30;21.30;;;;;;;16.13;100.00;102624.69;4792620;29;20032;-84
2023/09/03 07:46:26;;;;;;;25.90;21.17;;;;;;;16.19;100.00;102623.00;4793890;30;20058;-84
2023/09/03 07:48:52;;;;;;;27.55;21.05;;;;;;;16.29;100.00;102626.19;4792625;29;20049;-84
2023/09/03 07:51:19;;;;;;;31.00;21.00;;;;;;;16.36;100.00;102634.38;4777575;30;20477;-84
2023/09/03 07:53:45;;;;;;;25.27;21.80;;;;;;;16.43;100.00;102627.00;4793228;29;20038;-84
2023/09/03 07:56:10;;;;;;;26.67;20.70;;;;;;;16.54;100.00;102628.28;4794235;30;20143;-84
2023/09/03 07:58:37;;;;;;;26.53;21.67;;;;;;;16.58;100.00;102622.16;4792384;29;20079;-84
2023/09/03 08:01:04;;;;;;;24.37;20.43;;;;;;;16.73;100.00;102634.78;4793759;29;20287;-84
2023/09/03 08:03:34;;;;;;;26.35;21.02;;;;;;;16.86;100.00;102625.69;4793629;30;20066;-84
2023/09/03 08:06:00;;;;;;;26.42;21.15;;;;;;;16.94;100.00;102622.75;4792447;30;20035;-84
2023/09/03 08:08:26;;;;;;;26.60;21.17;;;;;;;17.08;100.00;102620.81;4776851;30;20034;-84
2023/09/03 08:10:51;;;;;;;26.17;20.27;;;;;;;17.21;100.00;102625.41;4789722;29;20039;-83
2023/09/03 08:13:16;;;;;;;26.88;20.98;;;;;;;17.34;100.00;102622.63;4804690;29;20043;-84
2023/09/03 08:15:42;;;;;;;26.17;20.33;;;;;;;17.45;100.00;102621.94;4789703;29;20393;-83
2023/09/03 08:18:07;;;;;;;28.30;20.27;;;;;;;17.61;100.00;102622.47;4774604;30;20504;-83
2023/09/03 08:20:33;;;;;;;22.53;19.37;;;;;;;17.77;100.00;102621.13;4789469;29;20134;-84
2023/09/03 08:22:58;;;;;;;25.27;19.97;;;;;;;17.98;100.00;102623.56;4774240;29;20473;-84
2023/09/03 08:25:23;;;;;;;24.10;19.23;;;;;;;18.14;100.00;102618.56;4774433;30;20043;-83
2023/09/03 08:27:49;;;;;;;24.33;18.67;;;;;;;18.28;100.00;102613.81;4789470;29;20496;-83
2023/09/03 08:30:14;;;;;;;21.93;17.80;;;;;;;18.41;100.00;102616.47;4790809;29;20027;-83
2023/09/03 08:32:40;;;;;;;23.57;18.73;;;;;;;18.57;100.00;102618.63;4790651;29;20445;-83
2023/09/03 08:35:08;;;;;;;23.95;18.23;;;;;;;18.68;100.00;102617.03;4790518;29;20538;-83
2023/09/03 08:37:34;;;;;;;22.37;18.63;;;;;;;18.74;100.00;102620.78;4790401;29;20180;-84
2023/09/03 08:39:59;;;;;;;21.98;17.90;;;;;;;18.86;100.00;102618.16;4790945;29;20470;-84
2023/09/03 08:42:29;;;;;;;19.10;17.03;;;;;;;18.97;100.00;102633.91;4789262;30;20035;-83
2023/09/03 08:45:10;;;;;;;19.13;17.10;;;;;;;19.13;100.00;102626.09;4790346;30;20027;-83
2023/09/03 08:47:39;;;;;;;21.87;17.07;;;;;;;19.28;100.00;102626.53;4790419;29;20508;-83
2023/09/03 08:50:06;;;;;;;20.52;18.25;;;;;;;19.36;100.00;102623.47;4788801;29;20031;-84
2023/09/03 08:52:32;;;;;;;19.50;16.90;;;;;;;19.48;100.00;102618.03;4789239;29;20036;-84
2023/09/03 08:55:00;;;;;;;17.98;14.55;;;;;;;19.59;100.00;102622.75;4803775;29;20513;-84
2023/09/03 08:57:28;;;;;;;19.83;14.70;;;;;;;19.72;100.00;102624.47;4788800;30;20043;-83
2023/09/03 08:59:55;;;;;;;16.83;14.15;;;;;;;19.80;100.00;102628.84;4790269;30;20034;-83
2023/09/03 09:02:21;;;;;;;17.48;12.70;;;;;;;19.91;100.00;102629.97;4789193;30;20397;-83
2023/09/03 09:04:47;;;;;;;15.63;12.40;;;;;;;19.99;100.00;102632.38;4788647;30;20039;-84
2023/09/03 09:07:13;;;;;;;14.60;12.27;;;;;;;20.11;100.00;102632.41;4790590;30;20054;-83
2023/09/03 09:09:40;;;;;;;14.85;12.32;;;;;;;20.21;100.00;102632.69;4789692;30;20035;-84
2023/09/03 09:12:11;;;;;;;13.73;12.07;;;;;;;20.31;100.00;102626.56;4788802;29;20051;-83
2023/09/03 09:14:52;;;;;;;17.88;12.80;;;;;;;20.39;100.00;102625.34;4789805;30;20031;-83
2023/09/03 09:17:17;;;;;;;16.80;13.53;;;;;;;20.47;99.83;102619.50;4774421;30;20032;-83
2023/09/03 09:19:42;;;;;;;17.80;14.57;;;;;;;20.58;100.00;102628.84;4803241;29;20055;-84
2023/09/03 09:22:08;;;;;;;17.17;14.30;;;;;;;20.65;99.58;102624.06;4788205;30;20106;-83
2023/09/03 09:24:44;;;;;;;17.47;14.63;;;;;;;20.77;99.52;102622.19;4773243;30;20039;-84
2023/09/03 09:27:14;;;;;;;15.10;12.68;;;;;;;20.89;97.67;102621.31;4774020;30;20493;-84
2023/09/03 09:29:40;;;;;;;15.43;11.25;;;;;;;21.00;96.25;102618.53;4789828;29;20035;-84
2023/09/03 09:32:23;;;;;;;12.43;10.77;;;;;;;21.16;97.16;102619.69;4788159;29;20058;-84
2023/09/03 09:34:50;;;;;;;12.05;10.73;;;;;;;21.29;93.84;102621.34;4789714;29;20027;-83
2023/09/03 09:37:16;;;;;;;15.45;11.25;;;;;;;21.49;93.94;102620.91;4803257;29;20027;-84
2023/09/03 09:39:46;;;;;;;15.05;11.60;;;;;;;21.65;92.67;102615.72;4773096;30;20031;-84
2023/09/03 09:42:13;;;;;;;14.27;11.47;;;;;;;21.82;91.63;102622.13;4788193;29;20037;-84
2023/09/03 09:44:59;;;;;;;17.40;11.00;;;;;;;22.14;94.30;102620.72;4773082;30;20034;-85
2023/09/03 09:47:26;;;;;;;12.02;9.55;;;;;;;22.30;89.12;102616.28;4787734;29;20060;-84
2023/09/03 09:49:51;;;;;;;13.93;10.00;;;;;;;22.48;87.57;102618.81;4789357;30;20175;-85
2023/09/03 09:52:18;;;;;;;11.60;9.47;;;;;;;22.74;87.49;102611.72;4789437;30;20031;-84
2023/09/03 09:54:45;;;;;;;12.50;8.85;;;;;;;22.89;85.33;102605.56;4790321;29;20051;-85
2023/09/03 09:57:11;;;;;;;13.02;9.20;;;;;;;23.09;82.67;102610.53;4807355;29;20100;-85
2023/09/03 09:59:36;;;;;;;10.87;8.60;;;;;;;23.35;81.14;102601.72;4805692;29;20039;-82
2023/09/03 10:02:12;;;;;;;9.52;7.95;;;;;;;23.56;81.49;102600.00;4805771;29;20042;-83
2023/09/03 10:04:44;;;;;;;10.47;8.00;;;;;;;23.80;79.92;102595.81;4806940;29;20058;-85
2023/09/03 10:07:10;;;;;;;8.82;7.60;;;;;;;23.99;77.14;102596.31;4806531;29;20126;-84
2023/09/03 10:09:37;;;;;;;11.02;7.28;;;;;;;24.11;75.64;102598.91;4805596;29;20035;-83
2023/09/03 10:12:07;;;;;;;13.38;7.45;;;;;;;24.15;75.52;102605.59;4790557;29;20055;-83
2023/09/03 10:14:33;;;;;;;9.88;6.65;;;;;;;24.35;72.75;102604.06;4805501;29;20064;-84
2023/09/03 10:17:04;;;;;;;9.50;7.53;;;;;;;24.63;74.24;102604.84;4806758;29;20038;-83
2023/09/03 10:19:50;;;;;;;9.48;6.60;;;;;;;24.83;76.23;102604.09;4807044;29;20495;-83
2023/09/03 10:22:18;;;;;;;9.65;7.13;;;;;;;24.95;70.61;102601.94;4807233;29;20023;-84
2023/09/03 10:24:49;;;;;;;8.65;7.05;;;;;;;25.17;70.46;102598.13;4789930;29;20108;-84
2023/09/03 10:27:19;;;;;;;8.88;6.47;;;;;;;25.29;70.58;102597.88;4806785;29;20038;-84
2023/09/03 10:29:47;;;;;;;8.10;5.83;;;;;;;25.41;68.16;102600.44;4805449;29;20026;-84
2023/09/03 10:32:15;;;;;;;7.93;5.50;;;;;;;25.63;67.74;102603.00;4805909;29;20034;-84
2023/09/03 10:34:41;;;;;;;7.07;6.28;;;;;;;25.77;65.95;102598.56;4805203;29;20038;-84
2023/09/03 10:37:14;;;;;;;8.38;5.97;;;;;;;26.01;66.66;102609.19;4806679;29;20544;-83
2023/09/03 10:39:43;;;;;;;9.35;5.90;;;;;;;26.04;64.69;102600.28;4790423;29;20042;-84
2023/09/03 10:42:14;;;;;;;7.50;5.67;;;;;;;26.36;65.30;102599.97;4805249;29;20053;-84
2023/09/03 10:44:44;;;;;;;8.27;6.05;;;;;;;26.54;63.33;102594.94;4805318;29;20392;-83
2023/09/03 10:47:13;;;;;;;9.35;6.13;;;;;;;26.93;61.22;102603.47;4790231;29;20399;-83
2023/09/03 10:49:46;;;;;;;7.38;5.20;;;;;;;27.05;60.08;102599.53;4806547;29;20035;-84
2023/09/03 10:52:28;;;;;;;6.65;4.85;;;;;;;27.29;62.13;102600.50;4790666;29;20047;-84
2023/09/03 10:55:08;;;;;;;6.80;5.63;;;;;;;27.49;61.40;102604.34;4804714;29;20043;-84
2023/09/03 10:57:34;;;;;;;7.05;4.60;;;;;;;27.51;57.47;102598.50;4805243;29;20031;-84
2023/09/03 11:00:08;;;;;;;4.90;4.00;;;;;;;27.76;55.02;102603.06;4806774;29;20446;-84
2023/09/03 11:02:37;;;;;;;5.20;3.75;;;;;;;28.12;54.53;102605.56;4806388;29;20027;-84
2023/09/03 11:05:21;;;;;;;6.25;4.20;;;;;;;28.62;56.51;102597.81;4775123;29;20046;-83
2023/09/03 11:07:49;;;;;;;5.13;4.63;;;;;;;29.09;52.57;102597.28;4790340;29;20058;-84
2023/09/03 11:10:20;;;;;;;7.32;5.40;;;;;;;29.36;52.62;102599.44;4805955;29;20045;-84